sensor_id;sensor_type;location;lat;lon;timestamp;pressure;altitude;pressure_sealevel;temperature;humidity
21824;BME280;11074;48.596;9.238;2023-05-02T00:00:37;98333.25;;;12.63;91.70
21824;BME280;11074;48.596;9.238;2023-05-02T00:03:04;98336.13;;;12.52;91.85
21824;BME280;11074;48.596;9.238;2023-05-02T00:05:30;98338.28;;;12.50;92.42
21824;BME280;11074;48.596;9.238;2023-05-02T00:07:56;98329.22;;;12.61;92.55
21824;BME280;11074;48.596;9.238;2023-05-02T00:10:22;98331.31;;;12.59;91.96
21824;BME280;11074;48.596;9.238;2023-05-02T00:12:47;98325.69;;;12.55;91.65
21824;BME280;11074;48.596;9.238;2023-05-02T00:15:13;98330.22;;;12.50;90.71
21824;BME280;11074;48.596;9.238;2023-05-02T00:17:40;98322.38;;;12.38;91.56
21824;BME280;11074;48.596;9.238;2023-05-02T00:20:08;98315.13;;;12.34;91.21
21824;BME280;11074;48.596;9.238;2023-05-02T00:22:35;98324.25;;;12.38;90.88
21824;BME280;11074;48.596;9.238;2023-05-02T00:25:01;98320.09;;;12.15;91.55
21824;BME280;11074;48.596;9.238;2023-05-02T00:27:28;98324.44;;;12.21;92.39
21824;BME280;11074;48.596;9.238;2023-05-02T00:29:54;98326.09;;;12.32;91.89
21824;BME280;11074;48.596;9.238;2023-05-02T00:32:20;98322.88;;;12.35;90.82
21824;BME280;11074;48.596;9.238;2023-05-02T00:34:45;98336.22;;;12.25;91.12
21824;BME280;11074;48.596;9.238;2023-05-02T00:37:11;98330.31;;;12.18;91.39
21824;BME280;11074;48.596;9.238;2023-05-02T00:39:37;98332.09;;;12.07;91.42
21824;BME280;11074;48.596;9.238;2023-05-02T00:42:03;98326.38;;;11.94;92.12
21824;BME280;11074;48.596;9.238;2023-05-02T00:44:29;98327.91;;;11.85;93.44
21824;BME280;11074;48.596;9.238;2023-05-02T00:46:56;98327.97;;;11.95;92.89
21824;BME280;11074;48.596;9.238;2023-05-02T00:49:22;98330.25;;;12.08;92.62
21824;BME280;11074;48.596;9.238;2023-05-02T00:51:47;98333.41;;;12.00;92.96
21824;BME280;11074;48.596;9.238;2023-05-02T00:54:13;98334.50;;;12.09;92.44
21824;BME280;11074;48.596;9.238;2023-05-02T00:56:39;98335.16;;;12.21;92.02
21824;BME280;11074;48.596;9.238;2023-05-02T00:59:07;98344.06;;;12.32;91.82
21824;BME280;11074;48.596;9.238;2023-05-02T01:10:12;98353.66;;;12.28;92.25
21824;BME280;11074;48.596;9.238;2023-05-02T01:13:02;98352.38;;;12.35;92.69
21824;BME280;11074;48.596;9.238;2023-05-02T01:15:31;98351.03;;;12.33;93.08
21824;BME280;11074;48.596;9.238;2023-05-02T01:18:00;98354.75;;;12.27;91.76
21824;BME280;11074;48.596;9.238;2023-05-02T01:20:29;98355.84;;;12.31;91.70
21824;BME280;11074;48.596;9.238;2023-05-02T01:23:03;98354.22;;;12.30;93.19
21824;BME280;11074;48.596;9.238;2023-05-02T01:29:07;98360.66;;;12.29;94.07
21824;BME280;11074;48.596;9.238;2023-05-02T01:31:41;98350.44;;;12.26;94.71
21824;BME280;11074;48.596;9.238;2023-05-02T01:34:10;98358.78;;;12.29;94.24
21824;BME280;11074;48.596;9.238;2023-05-02T01:36:41;98363.28;;;12.19;94.47
21824;BME280;11074;48.596;9.238;2023-05-02T01:39:10;98362.53;;;12.28;94.44
21824;BME280;11074;48.596;9.238;2023-05-02T01:41:39;98355.03;;;12.30;94.08
21824;BME280;11074;48.596;9.238;2023-05-02T01:44:07;98359.34;;;12.31;94.02
21824;BME280;11074;48.596;9.238;2023-05-02T01:46:39;98358.00;;;12.34;94.65
21824;BME280;11074;48.596;9.238;2023-05-02T01:49:07;98358.84;;;12.39;94.18
21824;BME280;11074;48.596;9.238;2023-05-02T01:51:37;98359.63;;;12.35;93.78
21824;BME280;11074;48.596;9.238;2023-05-02T01:54:07;98362.84;;;12.32;93.48
21824;BME280;11074;48.596;9.238;2023-05-02T01:56:37;98358.00;;;12.34;93.15
21824;BME280;11074;48.596;9.238;2023-05-02T01:59:18;98363.38;;;12.34;92.94
21824;BME280;11074;48.596;9.238;2023-05-02T02:01:45;98367.06;;;12.28;94.14
21824;BME280;11074;48.596;9.238;2023-05-02T02:04:15;98366.97;;;12.12;93.92
21824;BME280;11074;48.596;9.238;2023-05-02T02:06:49;98365.88;;;12.13;94.54
21824;BME280;11074;48.596;9.238;2023-05-02T02:09:16;98360.75;;;12.07;94.75
21824;BME280;11074;48.596;9.238;2023-05-02T02:12:13;98357.03;;;12.08;95.25
21824;BME280;11074;48.596;9.238;2023-05-02T02:14:45;98365.09;;;12.13;94.74
21824;BME280;11074;48.596;9.238;2023-05-02T02:17:21;98368.34;;;12.15;94.61
21824;BME280;11074;48.596;9.238;2023-05-02T02:19:52;98366.13;;;12.07;94.59
21824;BME280;11074;48.596;9.238;2023-05-02T02:22:20;98376.56;;;12.08;94.89
21824;BME280;11074;48.596;9.238;2023-05-02T02:24:51;98370.72;;;12.11;94.49
21824;BME280;11074;48.596;9.238;2023-05-02T02:27:18;98372.31;;;12.07;94.83
21824;BME280;11074;48.596;9.238;2023-05-02T02:29:44;98372.00;;;12.04;94.45
21824;BME280;11074;48.596;9.238;2023-05-02T02:32:10;98373.91;;;12.08;94.79
21824;BME280;11074;48.596;9.238;2023-05-02T02:34:35;98377.63;;;12.02;94.43
21824;BME280;11074;48.596;9.238;2023-05-02T02:37:16;98379.72;;;12.00;94.81
21824;BME280;11074;48.596;9.238;2023-05-02T02:45:56;98386.00;;;11.84;95.59
21824;BME280;11074;48.596;9.238;2023-05-02T02:48:50;98394.38;;;11.88;94.72
21824;BME280;11074;48.596;9.238;2023-05-02T02:51:30;98396.59;;;11.69;94.69
21824;BME280;11074;48.596;9.238;2023-05-02T02:54:29;98399.28;;;11.47;93.96
21824;BME280;11074;48.596;9.238;2023-05-02T02:57:14;98406.66;;;11.35;94.79
21824;BME280;11074;48.596;9.238;2023-05-02T03:00:12;98407.91;;;11.28;94.98
21824;BME280;11074;48.596;9.238;2023-05-02T03:02:42;98406.50;;;11.47;93.76
21824;BME280;11074;48.596;9.238;2023-05-02T03:05:10;98409.53;;;11.55;92.66
21824;BME280;11074;48.596;9.238;2023-05-02T03:07:36;98417.91;;;11.37;92.74
21824;BME280;11074;48.596;9.238;2023-05-02T03:10:03;98423.19;;;11.54;93.35
21824;BME280;11074;48.596;9.238;2023-05-02T03:12:30;98423.75;;;11.56;92.80
21824;BME280;11074;48.596;9.238;2023-05-02T03:15:35;98429.69;;;11.63;91.51
21824;BME280;11074;48.596;9.238;2023-05-02T03:18:12;98432.88;;;11.33;90.42
21824;BME280;11074;48.596;9.238;2023-05-02T03:20:38;98438.19;;;11.28;89.63
21824;BME280;11074;48.596;9.238;2023-05-02T03:23:04;98442.66;;;11.23;90.02
21824;BME280;11074;48.596;9.238;2023-05-02T03:25:30;98447.13;;;11.17;89.98
21824;BME280;11074;48.596;9.238;2023-05-02T03:27:56;98444.81;;;11.26;89.92
21824;BME280;11074;48.596;9.238;2023-05-02T03:30:22;98444.63;;;11.11;91.20
21824;BME280;11074;48.596;9.238;2023-05-02T03:32:48;98450.53;;;11.13;91.04
21824;BME280;11074;48.596;9.238;2023-05-02T03:35:14;98443.22;;;11.25;90.29
21824;BME280;11074;48.596;9.238;2023-05-02T03:37:39;98456.69;;;11.13;90.07
21824;BME280;11074;48.596;9.238;2023-05-02T03:40:06;98457.88;;;11.01;91.19
21824;BME280;11074;48.596;9.238;2023-05-02T03:42:34;98464.00;;;10.79;91.67
21824;BME280;11074;48.596;9.238;2023-05-02T03:45:09;98469.97;;;10.86;92.53
21824;BME280;11074;48.596;9.238;2023-05-02T03:47:35;98477.16;;;11.03;90.96
21824;BME280;11074;48.596;9.238;2023-05-02T03:50:00;98473.69;;;11.24;91.32
21824;BME280;11074;48.596;9.238;2023-05-02T03:52:27;98477.06;;;11.36;91.58
21824;BME280;11074;48.596;9.238;2023-05-02T03:54:53;98490.56;;;11.46;90.98
21824;BME280;11074;48.596;9.238;2023-05-02T03:57:19;98486.91;;;11.52;90.89
21824;BME280;11074;48.596;9.238;2023-05-02T03:59:45;98488.00;;;11.56;91.16
21824;BME280;11074;48.596;9.238;2023-05-02T04:02:11;98488.88;;;11.62;91.66
21824;BME280;11074;48.596;9.238;2023-05-02T04:04:37;98495.09;;;11.67;91.50
21824;BME280;11074;48.596;9.238;2023-05-02T04:07:04;98496.16;;;11.66;91.21
21824;BME280;11074;48.596;9.238;2023-05-02T04:09:35;98504.78;;;11.68;90.98
21824;BME280;11074;48.596;9.238;2023-05-02T04:12:03;98508.31;;;11.74;91.65
21824;BME280;11074;48.596;9.238;2023-05-02T04:14:29;98511.81;;;11.74;91.49
21824;BME280;11074;48.596;9.238;2023-05-02T04:16:55;98516.66;;;11.77;91.50
21824;BME280;11074;48.596;9.238;2023-05-02T04:19:21;98517.97;;;11.75;91.16
21824;BME280;11074;48.596;9.238;2023-05-02T04:21:46;98512.31;;;11.71;91.48
21824;BME280;11074;48.596;9.238;2023-05-02T04:24:12;98519.28;;;11.72;91.27
21824;BME280;11074;48.596;9.238;2023-05-02T04:26:39;98517.44;;;11.73;91.69
21824;BME280;11074;48.596;9.238;2023-05-02T04:29:04;98521.97;;;11.72;92.38
21824;BME280;11074;48.596;9.238;2023-05-02T04:31:31;98527.00;;;11.69;92.16
21824;BME280;11074;48.596;9.238;2023-05-02T04:33:57;98526.19;;;11.68;92.28
21824;BME280;11074;48.596;9.238;2023-05-02T04:36:24;98527.00;;;11.69;91.97
21824;BME280;11074;48.596;9.238;2023-05-02T04:38:50;98529.09;;;11.67;92.02
21824;BME280;11074;48.596;9.238;2023-05-02T04:41:16;98526.91;;;11.64;93.11
21824;BME280;11074;48.596;9.238;2023-05-02T04:43:43;98536.81;;;11.63;92.71
21824;BME280;11074;48.596;9.238;2023-05-02T04:46:09;98534.41;;;11.62;92.99
21824;BME280;11074;48.596;9.238;2023-05-02T04:48:35;98541.56;;;11.56;92.87
21824;BME280;11074;48.596;9.238;2023-05-02T04:51:00;98537.19;;;11.50;93.67
21824;BME280;11074;48.596;9.238;2023-05-02T04:53:26;98540.13;;;11.48;93.71
21824;BME280;11074;48.596;9.238;2023-05-02T04:55:52;98543.69;;;11.54;93.93
21824;BME280;11074;48.596;9.238;2023-05-02T04:58:18;98541.00;;;11.54;93.62
21824;BME280;11074;48.596;9.238;2023-05-02T05:00:43;98540.75;;;11.55;93.37
21824;BME280;11074;48.596;9.238;2023-05-02T05:03:09;98550.97;;;11.58;92.97
21824;BME280;11074;48.596;9.238;2023-05-02T05:05:35;98543.47;;;11.61;93.45
21824;BME280;11074;48.596;9.238;2023-05-02T05:08:00;98544.72;;;11.53;93.86
21824;BME280;11074;48.596;9.238;2023-05-02T05:10:26;98548.06;;;11.60;93.89
21824;BME280;11074;48.596;9.238;2023-05-02T05:12:52;98546.84;;;11.51;93.55
21824;BME280;11074;48.596;9.238;2023-05-02T05:15:18;98543.69;;;11.54;93.64
21824;BME280;11074;48.596;9.238;2023-05-02T05:17:46;98546.69;;;11.57;94.16
21824;BME280;11074;48.596;9.238;2023-05-02T05:20:12;98553.09;;;11.56;93.59
21824;BME280;11074;48.596;9.238;2023-05-02T05:22:39;98551.22;;;11.57;94.07
21824;BME280;11074;48.596;9.238;2023-05-02T05:25:09;98559.50;;;11.55;93.63
21824;BME280;11074;48.596;9.238;2023-05-02T05:27:36;98550.56;;;11.50;93.84
21824;BME280;11074;48.596;9.238;2023-05-02T05:30:03;98554.94;;;11.56;93.81
21824;BME280;11074;48.596;9.238;2023-05-02T05:32:29;98551.28;;;11.62;93.71
21824;BME280;11074;48.596;9.238;2023-05-02T05:34:57;98561.50;;;11.65;94.13
21824;BME280;11074;48.596;9.238;2023-05-02T05:37:22;98561.19;;;11.62;94.34
21824;BME280;11074;48.596;9.238;2023-05-02T05:39:48;98565.78;;;11.66;93.72
21824;BME280;11074;48.596;9.238;2023-05-02T05:42:14;98569.63;;;11.70;93.66
21824;BME280;11074;48.596;9.238;2023-05-02T05:44:40;98572.59;;;11.74;93.67
21824;BME280;11074;48.596;9.238;2023-05-02T05:47:05;98574.78;;;11.77;93.75
21824;BME280;11074;48.596;9.238;2023-05-02T05:49:31;98583.94;;;11.81;94.20
21824;BME280;11074;48.596;9.238;2023-05-02T05:51:57;98585.88;;;11.85;93.93
21824;BME280;11074;48.596;9.238;2023-05-02T05:54:23;98593.75;;;11.92;93.44
21824;BME280;11074;48.596;9.238;2023-05-02T05:56:49;98594.34;;;11.99;93.17
21824;BME280;11074;48.596;9.238;2023-05-02T05:59:14;98594.97;;;12.06;93.01
21824;BME280;11074;48.596;9.238;2023-05-02T06:01:40;98599.88;;;12.14;92.58
21824;BME280;11074;48.596;9.238;2023-05-02T06:04:06;98606.16;;;12.25;92.21
21824;BME280;11074;48.596;9.238;2023-05-02T06:06:32;98605.19;;;12.36;91.60
21824;BME280;11074;48.596;9.238;2023-05-02T06:08:58;98611.44;;;12.41;91.87
21824;BME280;11074;48.596;9.238;2023-05-02T06:11:24;98608.28;;;12.49;92.19
21824;BME280;11074;48.596;9.238;2023-05-02T06:13:51;98613.47;;;12.56;91.13
21824;BME280;11074;48.596;9.238;2023-05-02T06:16:18;98617.56;;;12.63;92.26
21824;BME280;11074;48.596;9.238;2023-05-02T06:18:49;98614.66;;;12.70;90.44
21824;BME280;11074;48.596;9.238;2023-05-02T06:21:15;98618.47;;;12.74;90.11
21824;BME280;11074;48.596;9.238;2023-05-02T06:23:41;98621.44;;;12.77;90.06
21824;BME280;11074;48.596;9.238;2023-05-02T06:26:07;98623.91;;;12.84;90.31
21824;BME280;11074;48.596;9.238;2023-05-02T06:28:34;98623.38;;;12.82;90.48
21824;BME280;11074;48.596;9.238;2023-05-02T06:31:04;98630.91;;;12.85;90.84
21824;BME280;11074;48.596;9.238;2023-05-02T06:33:32;98628.72;;;12.82;91.58
21824;BME280;11074;48.596;9.238;2023-05-02T06:35:58;98640.75;;;12.74;90.60
21824;BME280;11074;48.596;9.238;2023-05-02T06:38:24;98639.31;;;12.67;91.81
21824;BME280;11074;48.596;9.238;2023-05-02T06:40:50;98643.56;;;12.63;92.41
21824;BME280;11074;48.596;9.238;2023-05-02T06:43:17;98640.28;;;12.56;92.32
21824;BME280;11074;48.596;9.238;2023-05-02T06:45:43;98640.03;;;12.57;93.53
21824;BME280;11074;48.596;9.238;2023-05-02T06:48:10;98649.44;;;12.60;92.90
21824;BME280;11074;48.596;9.238;2023-05-02T06:50:36;98654.81;;;12.60;92.54
21824;BME280;11074;48.596;9.238;2023-05-02T06:53:03;98646.56;;;12.66;92.95
21824;BME280;11074;48.596;9.238;2023-05-02T06:55:29;98657.56;;;12.70;92.32
21824;BME280;11074;48.596;9.238;2023-05-02T06:57:55;98658.94;;;12.72;91.92
21824;BME280;11074;48.596;9.238;2023-05-02T07:00:21;98654.75;;;12.82;91.99
21824;BME280;11074;48.596;9.238;2023-05-02T07:02:48;98658.88;;;12.94;92.36
21824;BME280;11074;48.596;9.238;2023-05-02T07:05:14;98662.44;;;13.00;91.42
21824;BME280;11074;48.596;9.238;2023-05-02T07:07:41;98667.59;;;13.06;92.10
21824;BME280;11074;48.596;9.238;2023-05-02T07:10:08;98661.19;;;13.07;92.64
21824;BME280;11074;48.596;9.238;2023-05-02T07:12:34;98669.78;;;13.09;91.22
21824;BME280;11074;48.596;9.238;2023-05-02T07:14:59;98672.25;;;13.16;90.82
21824;BME280;11074;48.596;9.238;2023-05-02T07:17:25;98671.47;;;13.20;90.67
21824;BME280;11074;48.596;9.238;2023-05-02T07:19:52;98675.56;;;13.28;90.34
21824;BME280;11074;48.596;9.238;2023-05-02T07:22:18;98679.56;;;13.25;90.50
21824;BME280;11074;48.596;9.238;2023-05-02T07:24:44;98678.53;;;13.26;91.28
21824;BME280;11074;48.596;9.238;2023-05-02T07:27:11;98680.19;;;13.32;90.54
21824;BME280;11074;48.596;9.238;2023-05-02T07:29:37;98676.97;;;13.30;91.72
21824;BME280;11074;48.596;9.238;2023-05-02T07:32:04;98670.25;;;13.33;92.38
21824;BME280;11074;48.596;9.238;2023-05-02T07:34:30;98683.72;;;13.38;90.50
21824;BME280;11074;48.596;9.238;2023-05-02T07:36:57;98666.25;;;13.35;90.25
21824;BME280;11074;48.596;9.238;2023-05-02T07:39:24;98675.16;;;13.41;90.11
21824;BME280;11074;48.596;9.238;2023-05-02T07:41:53;98674.38;;;13.46;90.11
21824;BME280;11074;48.596;9.238;2023-05-02T07:44:20;98677.09;;;13.51;89.35
21824;BME280;11074;48.596;9.238;2023-05-02T07:46:46;98682.78;;;13.54;91.00
21824;BME280;11074;48.596;9.238;2023-05-02T07:49:12;98688.72;;;13.61;89.15
21824;BME280;11074;48.596;9.238;2023-05-02T07:51:38;98686.84;;;13.62;88.62
21824;BME280;11074;48.596;9.238;2023-05-02T07:54:24;98684.44;;;13.65;88.98
21824;BME280;11074;48.596;9.238;2023-05-02T07:56:53;98685.28;;;13.71;88.95
21824;BME280;11074;48.596;9.238;2023-05-02T07:59:21;98681.84;;;13.75;88.45
21824;BME280;11074;48.596;9.238;2023-05-02T08:01:47;98681.56;;;13.77;88.46
21824;BME280;11074;48.596;9.238;2023-05-02T08:04:13;98688.56;;;13.78;89.73
21824;BME280;11074;48.596;9.238;2023-05-02T08:06:38;98689.94;;;13.85;88.40
21824;BME280;11074;48.596;9.238;2023-05-02T08:09:04;98687.50;;;13.84;90.43
21824;BME280;11074;48.596;9.238;2023-05-02T08:11:30;98688.13;;;13.96;89.78
21824;BME280;11074;48.596;9.238;2023-05-02T08:13:55;98698.38;;;13.99;87.86
21824;BME280;11074;48.596;9.238;2023-05-02T08:16:21;98700.53;;;14.02;86.98
21824;BME280;11074;48.596;9.238;2023-05-02T08:18:47;98709.09;;;13.94;86.63
21824;BME280;11074;48.596;9.238;2023-05-02T08:21:13;98706.41;;;13.94;86.24
21824;BME280;11074;48.596;9.238;2023-05-02T08:23:40;98702.09;;;13.93;86.23
21824;BME280;11074;48.596;9.238;2023-05-02T08:26:06;98701.31;;;14.03;85.99
21824;BME280;11074;48.596;9.238;2023-05-02T08:28:32;98713.50;;;14.10;85.56
21824;BME280;11074;48.596;9.238;2023-05-02T08:30:58;98715.34;;;14.10;85.24
21824;BME280;11074;48.596;9.238;2023-05-02T08:33:23;98715.06;;;14.06;85.30
21824;BME280;11074;48.596;9.238;2023-05-02T08:35:49;98724.53;;;14.19;84.46
21824;BME280;11074;48.596;9.238;2023-05-02T08:38:16;98723.47;;;14.20;84.90
21824;BME280;11074;48.596;9.238;2023-05-02T08:40:41;98725.38;;;14.29;85.79
21824;BME280;11074;48.596;9.238;2023-05-02T08:43:07;98723.03;;;14.33;86.49
21824;BME280;11074;48.596;9.238;2023-05-02T08:45:42;98720.66;;;14.46;85.28
21824;BME280;11074;48.596;9.238;2023-05-02T08:48:11;98728.22;;;14.49;85.01
21824;BME280;11074;48.596;9.238;2023-05-02T08:50:40;98722.81;;;14.44;84.06
21824;BME280;11074;48.596;9.238;2023-05-02T08:53:09;98729.25;;;14.38;83.88
21824;BME280;11074;48.596;9.238;2023-05-02T08:55:37;98723.88;;;14.43;83.72
21824;BME280;11074;48.596;9.238;2023-05-02T08:58:08;98728.75;;;14.51;83.16
21824;BME280;11074;48.596;9.238;2023-05-02T09:00:40;98723.16;;;14.63;83.50
21824;BME280;11074;48.596;9.238;2023-05-02T09:03:29;98731.53;;;14.77;82.73
21824;BME280;11074;48.596;9.238;2023-05-02T09:06:20;98733.66;;;14.70;82.42
21824;BME280;11074;48.596;9.238;2023-05-02T09:08:49;98738.28;;;14.84;83.17
21824;BME280;11074;48.596;9.238;2023-05-02T09:11:17;98745.56;;;14.99;81.70
21824;BME280;11074;48.596;9.238;2023-05-02T09:13:43;98737.50;;;15.09;81.29
21824;BME280;11074;48.596;9.238;2023-05-02T09:16:17;98739.69;;;15.17;80.88
21824;BME280;11074;48.596;9.238;2023-05-02T09:18:46;98748.28;;;15.09;80.23
21824;BME280;11074;48.596;9.238;2023-05-02T09:21:18;98738.31;;;15.04;80.65
21824;BME280;11074;48.596;9.238;2023-05-02T09:23:48;98744.53;;;15.10;79.32
21824;BME280;11074;48.596;9.238;2023-05-02T09:26:28;98747.75;;;15.02;80.94
21824;BME280;11074;48.596;9.238;2023-05-02T09:28:58;98736.19;;;15.11;79.98
21824;BME280;11074;48.596;9.238;2023-05-02T09:31:29;98741.06;;;15.25;80.18
21824;BME280;11074;48.596;9.238;2023-05-02T09:34:14;98740.78;;;15.31;78.92
21824;BME280;11074;48.596;9.238;2023-05-02T09:36:43;98739.72;;;15.37;78.54
21824;BME280;11074;48.596;9.238;2023-05-02T09:39:11;98732.47;;;15.53;77.89
21824;BME280;11074;48.596;9.238;2023-05-02T09:41:42;98736.00;;;15.53;77.65
21824;BME280;11074;48.596;9.238;2023-05-02T09:44:11;98744.59;;;15.55;76.86
21824;BME280;11074;48.596;9.238;2023-05-02T09:46:49;98735.97;;;15.58;77.12
21824;BME280;11074;48.596;9.238;2023-05-02T09:49:16;98736.78;;;15.69;77.09
21824;BME280;11074;48.596;9.238;2023-05-02T09:51:46;98737.31;;;15.71;76.93
21824;BME280;11074;48.596;9.238;2023-05-02T09:54:13;98738.41;;;15.75;75.82
21824;BME280;11074;48.596;9.238;2023-05-02T09:56:55;98741.09;;;15.85;75.23
21824;BME280;11074;48.596;9.238;2023-05-02T09:59:22;98746.19;;;15.87;75.76
21824;BME280;11074;48.596;9.238;2023-05-02T10:02:00;98736.50;;;15.91;76.00
21824;BME280;11074;48.596;9.238;2023-05-02T10:04:28;98747.00;;;15.82;76.47
21824;BME280;11074;48.596;9.238;2023-05-02T10:06:56;98741.91;;;15.86;75.72
21824;BME280;11074;48.596;9.238;2023-05-02T10:09:22;98730.00;;;15.87;76.40
21824;BME280;11074;48.596;9.238;2023-05-02T10:11:53;98741.63;;;15.87;74.10
21824;BME280;11074;48.596;9.238;2023-05-02T10:14:22;98734.34;;;15.88;73.84
21824;BME280;11074;48.596;9.238;2023-05-02T10:16:54;98744.84;;;15.89;75.16
21824;BME280;11074;48.596;9.238;2023-05-02T10:19:29;98721.38;;;15.90;74.04
21824;BME280;11074;48.596;9.238;2023-05-02T10:21:58;98729.47;;;15.95;74.02
21824;BME280;11074;48.596;9.238;2023-05-02T10:24:26;98734.59;;;15.96;72.71
21824;BME280;11074;48.596;9.238;2023-05-02T10:26:53;98738.09;;;16.02;73.20
21824;BME280;11074;48.596;9.238;2023-05-02T10:29:19;98733.50;;;16.07;73.11
21824;BME280;11074;48.596;9.238;2023-05-02T10:31:47;98737.53;;;16.15;72.55
21824;BME280;11074;48.596;9.238;2023-05-02T10:34:14;98731.59;;;16.18;71.19
21824;BME280;11074;48.596;9.238;2023-05-02T10:36:42;98734.25;;;16.23;70.97
21824;BME280;11074;48.596;9.238;2023-05-02T10:39:08;98731.78;;;16.31;71.45
21824;BME280;11074;48.596;9.238;2023-05-02T10:41:35;98729.84;;;16.42;71.44
21824;BME280;11074;48.596;9.238;2023-05-02T10:44:04;98734.72;;;16.55;71.09
21824;BME280;11074;48.596;9.238;2023-05-02T10:46:38;98721.19;;;16.65;71.57
21824;BME280;11074;48.596;9.238;2023-05-02T10:49:12;98728.16;;;16.71;69.96
21824;BME280;11074;48.596;9.238;2023-05-02T10:51:40;98723.00;;;16.75;70.71
21824;BME280;11074;48.596;9.238;2023-05-02T10:57:01;98710.34;;;16.70;71.21
21824;BME280;11074;48.596;9.238;2023-05-02T10:59:39;98722.47;;;16.73;69.97
21824;BME280;11074;48.596;9.238;2023-05-02T11:05:03;98717.28;;;16.86;69.45
21824;BME280;11074;48.596;9.238;2023-05-02T11:07:31;98719.63;;;16.98;69.10
21824;BME280;11074;48.596;9.238;2023-05-02T11:12:53;98707.28;;;17.26;67.89
21824;BME280;11074;48.596;9.238;2023-05-02T11:18:10;98708.56;;;17.33;66.98
21824;BME280;11074;48.596;9.238;2023-05-02T11:20:41;98709.44;;;17.29;68.10
21824;BME280;11074;48.596;9.238;2023-05-02T11:25:48;98713.28;;;17.18;68.12
21824;BME280;11074;48.596;9.238;2023-05-02T11:30:59;98714.91;;;17.19;68.25
21824;BME280;11074;48.596;9.238;2023-05-02T11:33:27;98711.66;;;17.22;68.72
21824;BME280;11074;48.596;9.238;2023-05-02T11:35:53;98707.34;;;17.21;68.27
21824;BME280;11074;48.596;9.238;2023-05-02T11:38:21;98709.28;;;17.10;67.69
21824;BME280;11074;48.596;9.238;2023-05-02T11:40:53;98705.31;;;17.03;67.55
21824;BME280;11074;48.596;9.238;2023-05-02T11:43:20;98698.00;;;16.98;68.70
21824;BME280;11074;48.596;9.238;2023-05-02T11:45:46;98690.09;;;17.12;68.14
21824;BME280;11074;48.596;9.238;2023-05-02T11:48:15;98697.72;;;17.38;66.57
21824;BME280;11074;48.596;9.238;2023-05-02T11:50:48;98701.91;;;17.60;64.78
21824;BME280;11074;48.596;9.238;2023-05-02T11:53:39;98694.63;;;17.84;64.53
21824;BME280;11074;48.596;9.238;2023-05-02T11:56:05;98693.38;;;18.00;62.10
21824;BME280;11074;48.596;9.238;2023-05-02T11:58:32;98689.09;;;18.23;61.75
21824;BME280;11074;48.596;9.238;2023-05-02T12:01:10;98684.94;;;18.54;62.38
21824;BME280;11074;48.596;9.238;2023-05-02T12:03:37;98686.50;;;18.79;60.47
21824;BME280;11074;48.596;9.238;2023-05-02T12:06:17;98690.22;;;18.83;60.07
21824;BME280;11074;48.596;9.238;2023-05-02T12:08:45;98691.19;;;18.73;59.89
21824;BME280;11074;48.596;9.238;2023-05-02T12:11:15;98688.16;;;18.56;60.11
21824;BME280;11074;48.596;9.238;2023-05-02T12:13:48;98691.03;;;18.41;60.65
21824;BME280;11074;48.596;9.238;2023-05-02T12:16:15;98685.22;;;18.29;60.80
21824;BME280;11074;48.596;9.238;2023-05-02T12:18:42;98684.31;;;18.14;59.91
21824;BME280;11074;48.596;9.238;2023-05-02T12:21:08;98689.41;;;17.92;59.93
21824;BME280;11074;48.596;9.238;2023-05-02T12:23:34;98693.00;;;17.88;60.00
21824;BME280;11074;48.596;9.238;2023-05-02T12:26:19;98690.09;;;17.79;59.85
21824;BME280;11074;48.596;9.238;2023-05-02T12:28:50;98686.69;;;17.69;60.44
21824;BME280;11074;48.596;9.238;2023-05-02T12:31:16;98702.16;;;17.63;59.28
21824;BME280;11074;48.596;9.238;2023-05-02T12:33:42;98694.09;;;17.58;60.86
21824;BME280;11074;48.596;9.238;2023-05-02T12:36:08;98691.66;;;17.51;60.88
21824;BME280;11074;48.596;9.238;2023-05-02T12:38:35;98689.13;;;17.31;60.35
21824;BME280;11074;48.596;9.238;2023-05-02T12:41:01;98693.66;;;17.41;60.41
21824;BME280;11074;48.596;9.238;2023-05-02T12:43:48;98685.25;;;17.76;60.60
21824;BME280;11074;48.596;9.238;2023-05-02T12:46:14;98688.03;;;18.18;59.39
21824;BME280;11074;48.596;9.238;2023-05-02T12:48:41;98677.69;;;18.49;58.83
21824;BME280;11074;48.596;9.238;2023-05-02T12:51:20;98685.97;;;18.95;58.64
21824;BME280;11074;48.596;9.238;2023-05-02T12:53:47;98695.56;;;19.06;56.66
21824;BME280;11074;48.596;9.238;2023-05-02T12:56:13;98692.03;;;18.68;53.19
21824;BME280;11074;48.596;9.238;2023-05-02T12:58:46;98688.25;;;18.69;55.12
21824;BME280;11074;48.596;9.238;2023-05-02T13:01:14;98690.22;;;18.64;53.61
21824;BME280;11074;48.596;9.238;2023-05-02T13:03:41;98688.47;;;18.54;56.25
21824;BME280;11074;48.596;9.238;2023-05-02T13:06:07;98688.25;;;18.46;56.26
21824;BME280;11074;48.596;9.238;2023-05-02T13:08:35;98691.59;;;18.38;57.39
21824;BME280;11074;48.596;9.238;2023-05-02T13:11:02;98690.56;;;18.34;57.56
21824;BME280;11074;48.596;9.238;2023-05-02T13:13:29;98699.91;;;18.23;57.68
21824;BME280;11074;48.596;9.238;2023-05-02T13:15:55;98697.47;;;18.21;58.56
21824;BME280;11074;48.596;9.238;2023-05-02T13:18:21;98698.81;;;18.24;59.68
21824;BME280;11074;48.596;9.238;2023-05-02T13:20:47;98690.13;;;18.27;59.29
21824;BME280;11074;48.596;9.238;2023-05-02T13:23:12;98693.56;;;18.32;58.04
21824;BME280;11074;48.596;9.238;2023-05-02T13:25:38;98686.91;;;18.48;55.65
21824;BME280;11074;48.596;9.238;2023-05-02T13:28:04;98688.50;;;18.92;53.17
21824;BME280;11074;48.596;9.238;2023-05-02T13:30:30;98690.88;;;19.30;52.11
21824;BME280;11074;48.596;9.238;2023-05-02T13:32:56;98687.69;;;19.61;51.81
21824;BME280;11074;48.596;9.238;2023-05-02T13:35:23;98676.34;;;19.72;51.12
21824;BME280;11074;48.596;9.238;2023-05-02T13:37:50;98685.44;;;19.49;51.79
21824;BME280;11074;48.596;9.238;2023-05-02T13:40:15;98683.06;;;19.10;53.17
21824;BME280;11074;48.596;9.238;2023-05-02T13:42:41;98679.91;;;19.03;54.06